createdAt,value
2019-05-03T00:01:16.096Z,20.93
2019-05-03T00:03:46.136Z,25.77
2019-05-03T00:06:16.265Z,21.37
2019-05-03T00:08:48.293Z,23.90
2019-05-03T00:11:22.073Z,23.60
2019-05-03T00:13:56.833Z,26.87
2019-05-03T00:16:32.548Z,22.60
2019-05-03T00:19:03.509Z,26.50
2019-05-03T00:21:33.344Z,29.53
2019-05-03T00:24:13.400Z,32.57
2019-05-03T00:26:43.488Z,38.17
2019-05-03T00:29:21.892Z,33.97
2019-05-03T00:31:52.102Z,37.50
2019-05-03T00:34:23.842Z,27.40
2019-05-03T00:37:19.613Z,33.20
2019-05-03T00:40:06.646Z,34.40
2019-05-03T00:42:36.494Z,37.87
2019-05-03T00:45:12.525Z,39.53
2019-05-03T00:47:43.729Z,39.20
2019-05-03T00:50:13.741Z,35.27
2019-05-03T00:52:45.748Z,35.67
2019-05-03T00:55:19.205Z,41.40
2019-05-03T00:57:48.008Z,49.23
2019-05-03T01:00:18.831Z,44.63
2019-05-03T01:02:48.993Z,37.70
2019-05-03T01:05:18.840Z,39.73
2019-05-03T01:07:48.802Z,46.30
2019-05-03T01:10:18.924Z,48.60
2019-05-03T01:12:52.344Z,45.07
2019-05-03T01:15:33.155Z,49.37
2019-05-03T01:18:06.357Z,48.23
2019-05-03T01:20:42.167Z,46.23
2019-05-03T01:23:21.567Z,55.47
2019-05-03T01:26:06.266Z,48.73
2019-05-03T01:28:52.470Z,55.30
2019-05-03T01:31:31.872Z,50.40
2019-05-03T01:34:08.392Z,56.43
2019-05-03T01:36:53.845Z,49.90
2019-05-03T01:39:34.913Z,46.50
2019-05-03T01:42:07.036Z,65.27
2019-05-03T01:44:46.622Z,49.13
2019-05-03T01:47:23.040Z,54.33
2019-05-03T01:49:56.626Z,60.00
2019-05-03T01:52:28.362Z,56.83
2019-05-03T01:55:03.267Z,60.50
2019-05-03T01:57:34.044Z,56.17
2019-05-03T02:00:08.964Z,57.90
2019-05-03T02:02:53.385Z,66.10
2019-05-03T02:05:25.688Z,60.60
2019-05-03T02:07:56.642Z,59.07
2019-05-03T02:10:26.741Z,58.93
2019-05-03T02:12:56.585Z,63.47
2019-05-03T02:15:27.497Z,61.47
2019-05-03T02:17:57.697Z,65.17
2019-05-03T02:20:28.781Z,70.17
2019-05-03T02:23:05.196Z,61.30
2019-05-03T02:25:36.556Z,66.20
2019-05-03T02:28:12.692Z,58.97
2019-05-03T02:30:44.813Z,56.20
2019-05-03T02:33:16.437Z,66.03
2019-05-03T02:35:47.515Z,62.37
2019-05-03T02:38:17.680Z,57.40
2019-05-03T02:40:47.782Z,68.80
2019-05-03T02:43:25.866Z,65.03
2019-05-03T02:46:06.606Z,68.37
2019-05-03T02:48:46.085Z,65.17
2019-05-03T02:51:16.078Z,52.57
2019-05-03T02:53:45.988Z,54.63
2019-05-03T02:56:22.267Z,56.17
2019-05-03T02:58:49.297Z,52.03
2019-05-03T03:01:20.936Z,51.67
2019-05-03T03:03:52.381Z,62.33
2019-05-03T03:06:27.142Z,67.00
2019-05-03T03:09:05.572Z,55.57
2019-05-03T03:11:45.832Z,54.13
2019-05-03T03:14:18.298Z,54.30
2019-05-03T03:16:55.931Z,61.47
2019-05-03T03:19:29.883Z,52.80
2019-05-03T03:22:05.999Z,75.33
2019-05-03T03:24:39.669Z,61.47
2019-05-03T03:27:16.651Z,56.40
2019-05-03T03:29:51.380Z,59.03
2019-05-03T03:32:30.319Z,68.97
2019-05-03T03:35:11.911Z,62.90
2019-05-03T03:37:51.690Z,58.50
2019-05-03T03:40:25.418Z,60.93
2019-05-03T03:43:05.427Z,64.03
2019-05-03T03:45:41.814Z,75.97
2019-05-03T03:48:15.595Z,70.00
2019-05-03T03:50:47.922Z,77.20
2019-05-03T03:53:21.007Z,74.40
2019-05-03T03:55:56.376Z,72.97
2019-05-03T03:58:27.299Z,64.70
2019-05-03T04:01:10.464Z,85.07
2019-05-03T04:03:41.321Z,65.37
2019-05-03T04:06:18.293Z,63.93
2019-05-03T04:08:49.467Z,80.53
2019-05-03T04:11:19.310Z,70.83
2019-05-03T04:13:50.262Z,69.40
2019-05-03T04:16:21.749Z,74.50
2019-05-03T04:18:55.115Z,63.53
2019-05-03T04:21:25.848Z,74.97
2019-05-03T04:23:57.987Z,85.63
2019-05-03T04:26:29.895Z,75.07
2019-05-03T04:29:00.966Z,74.40
2019-05-03T04:31:37.045Z,66.80
2019-05-03T04:34:07.797Z,76.17
2019-05-03T04:36:37.751Z,82.77
2019-05-03T04:39:07.931Z,75.57
2019-05-03T04:41:39.014Z,85.27
2019-05-03T04:44:15.450Z,83.40
2019-05-03T04:46:46.739Z,66.67
2019-05-03T04:49:19.922Z,69.57
2019-05-03T04:51:50.960Z,68.83
2019-05-03T04:54:30.214Z,73.37
2019-05-03T04:57:01.236Z,70.20
2019-05-03T04:59:31.334Z,72.47
2019-05-03T05:02:02.586Z,69.90
2019-05-03T05:04:35.741Z,68.67
2019-05-03T05:07:08.708Z,82.30
2019-05-03T05:09:38.817Z,74.63
2019-05-03T05:12:09.077Z,60.87
2019-05-03T05:14:39.159Z,61.37
2019-05-03T05:17:10.894Z,70.17
2019-05-03T05:19:58.693Z,82.93
2019-05-03T05:22:35.514Z,67.80
2019-05-03T05:25:11.286Z,60.57
2019-05-03T05:27:49.459Z,69.47
2019-05-03T05:30:16.805Z,59.10
2019-05-03T05:32:49.549Z,71.57
2019-05-03T05:35:19.501Z,61.03
2019-05-03T05:37:49.594Z,69.63
2019-05-03T05:40:28.305Z,69.97
2019-05-03T05:42:58.277Z,63.97
2019-05-03T05:45:28.365Z,64.07
2019-05-03T05:48:06.429Z,63.33
2019-05-03T05:50:45.977Z,66.13
2019-05-03T05:53:21.957Z,68.63
2019-05-03T05:56:15.801Z,63.50
2019-05-03T05:58:51.270Z,71.20
2019-05-03T06:01:29.265Z,75.23
2019-05-03T06:04:00.439Z,56.63
2019-05-03T06:06:32.237Z,61.03
2019-05-03T06:09:06.249Z,55.77
2019-05-03T06:11:42.577Z,57.53
2019-05-03T06:14:24.381Z,57.53
2019-05-03T06:16:57.897Z,66.27
2019-05-03T06:19:29.629Z,63.27
2019-05-03T06:22:01.377Z,57.83
2019-05-03T06:24:34.866Z,51.40
2019-05-03T06:27:06.557Z,57.83
2019-05-03T06:29:36.537Z,44.90
2019-05-03T06:32:17.041Z,53.90
2019-05-03T06:35:08.657Z,44.10
2019-05-03T06:37:42.495Z,43.40
2019-05-03T06:40:14.884Z,38.80
2019-05-03T06:42:54.439Z,56.50
2019-05-03T06:45:18.685Z,54.07
2019-05-03T06:47:50.122Z,44.73
2019-05-03T06:50:25.202Z,41.60
2019-05-03T06:52:54.804Z,43.50
2019-05-03T06:55:24.970Z,40.27
2019-05-03T06:57:55.062Z,39.80
2019-05-03T07:00:41.497Z,41.53
2019-05-03T07:03:15.503Z,49.53
2019-05-03T07:05:50.513Z,40.33
2019-05-03T07:08:45.461Z,44.87
2019-05-03T07:11:15.509Z,41.90
2019-05-03T07:13:46.417Z,49.30
2019-05-03T07:16:16.387Z,43.40
2019-05-03T07:18:51.510Z,44.97
2019-05-03T07:21:22.306Z,46.93
2019-05-03T07:23:55.029Z,39.90
2019-05-03T07:26:25.386Z,47.23
2019-05-03T07:28:55.520Z,50.10
2019-05-03T07:31:25.710Z,41.50
2019-05-03T07:33:56.497Z,38.03
2019-05-03T07:36:28.390Z,40.57
2019-05-03T07:38:58.253Z,31.33
2019-05-03T07:41:28.219Z,34.67
2019-05-03T07:44:05.364Z,32.87
2019-05-03T07:46:36.533Z,29.33
2019-05-03T07:49:06.653Z,33.07
2019-05-03T07:51:41.481Z,34.70
2019-05-03T07:54:11.437Z,30.50
2019-05-03T07:56:45.408Z,38.87
2019-05-03T07:59:15.120Z,28.87
2019-05-03T08:01:46.712Z,25.07
2019-05-03T08:04:16.568Z,26.40
2019-05-03T08:06:47.521Z,21.67
2019-05-03T08:09:19.579Z,23.20
2019-05-03T08:11:50.381Z,18.97
2019-05-03T08:14:20.399Z,15.10
2019-05-03T08:16:54.796Z,19.70
2019-05-03T08:19:26.946Z,19.87
2019-05-03T08:21:56.761Z,18.37
2019-05-03T08:24:26.979Z,15.37
2019-05-03T08:26:56.869Z,18.23
2019-05-03T08:29:26.593Z,18.73
2019-05-03T08:32:06.835Z,13.33
2019-05-03T08:34:38.577Z,14.90
2019-05-03T08:37:15.237Z,13.30
2019-05-03T08:39:44.957Z,17.80
2019-05-03T08:42:16.662Z,21.43
2019-05-03T08:44:46.939Z,20.83
2019-05-03T08:47:24.696Z,15.10
2019-05-03T08:49:55.457Z,14.00
2019-05-03T08:52:27.654Z,14.70
2019-05-03T08:54:57.755Z,12.20
2019-05-03T08:57:27.854Z,15.90
2019-05-03T09:00:09.207Z,14.50
2019-05-03T09:02:39.302Z,11.87
2019-05-03T09:05:09.473Z,12.73
2019-05-03T09:07:40.623Z,12.23
2019-05-03T09:10:29.634Z,9.60
2019-05-03T09:13:06.436Z,10.70
2019-05-03T09:15:55.061Z,17.70
2019-05-03T09:18:35.107Z,10.93
2019-05-03T09:21:05.187Z,11.80
2019-05-03T09:23:36.261Z,9.27
2019-05-03T09:26:15.067Z,9.10
2019-05-03T09:28:45.390Z,7.13
2019-05-03T09:31:15.733Z,10.70
2019-05-03T09:33:45.777Z,4.90
2019-05-03T09:36:15.863Z,7.97
2019-05-03T09:38:45.945Z,8.80
2019-05-03T09:41:21.728Z,8.53
2019-05-03T09:43:57.795Z,7.73
2019-05-03T09:46:27.902Z,9.10
2019-05-03T09:49:10.181Z,8.10
2019-05-03T09:51:30.001Z,6.83
2019-05-03T09:54:09.920Z,8.43
2019-05-03T09:56:58.634Z,7.73
2019-05-03T09:59:29.813Z,10.97
2019-05-03T10:02:04.460Z,10.23
2019-05-03T10:04:36.603Z,6.70
2019-05-03T10:07:06.632Z,8.03
2019-05-03T10:09:48.763Z,10.57
2019-05-03T10:12:20.354Z,6.87
2019-05-03T10:14:52.335Z,5.77
2019-05-03T10:17:25.281Z,8.73
2019-05-03T10:19:55.124Z,8.67
2019-05-03T10:22:29.608Z,9.33
2019-05-03T10:25:10.478Z,9.10
2019-05-03T10:27:45.979Z,13.83
2019-05-03T10:30:25.640Z,8.10
2019-05-03T10:32:58.471Z,9.37
2019-05-03T10:35:28.586Z,8.23
2019-05-03T10:38:05.781Z,8.90
2019-05-03T10:40:35.987Z,7.70
2019-05-03T10:43:07.922Z,7.30
2019-05-03T10:45:38.162Z,8.93
2019-05-03T10:48:08.326Z,6.20
2019-05-03T10:50:40.286Z,7.13
2019-05-03T10:53:19.468Z,7.30
2019-05-03T10:56:06.979Z,6.80
2019-05-03T10:58:37.263Z,10.13
2019-05-03T11:01:07.309Z,6.13
2019-05-03T11:03:38.343Z,8.20
2019-05-03T11:06:08.681Z,7.00
2019-05-03T11:08:38.794Z,6.30
2019-05-03T11:11:08.631Z,8.57
2019-05-03T11:13:44.350Z,8.53
2019-05-03T11:16:16.410Z,7.13
2019-05-03T11:18:47.262Z,5.30
2019-05-03T11:21:30.538Z,4.10
2019-05-03T11:23:56.566Z,3.70
2019-05-03T11:26:26.534Z,3.13
2019-05-03T11:29:00.366Z,4.10
2019-05-03T11:31:45.286Z,2.60
2019-05-03T11:34:28.726Z,3.40
2019-05-03T11:37:17.561Z,2.40
2019-05-03T11:39:51.354Z,2.60
2019-05-03T11:42:56.587Z,5.90
2019-05-03T11:45:26.678Z,1.97
2019-05-03T11:47:56.514Z,2.07
2019-05-03T11:50:26.479Z,1.60
2019-05-03T11:52:58.598Z,1.17
2019-05-03T11:55:31.579Z,1.30
2019-05-03T11:58:05.512Z,1.60
2019-05-03T12:00:36.642Z,1.60
2019-05-03T12:03:15.587Z,1.57
2019-05-03T12:05:48.158Z,2.10
2019-05-03T12:08:19.218Z,5.83
2019-05-03T12:10:58.560Z,3.30
2019-05-03T12:13:25.645Z,1.77
2019-05-03T12:15:55.757Z,1.33
2019-05-03T12:18:28.377Z,1.60
2019-05-03T12:21:00.269Z,1.80
2019-05-03T12:23:31.814Z,1.67
2019-05-03T12:26:08.654Z,1.57
2019-05-03T12:28:37.097Z,1.90
2019-05-03T12:31:07.116Z,1.70
2019-05-03T12:33:36.938Z,2.10
2019-05-03T12:36:07.194Z,1.50
2019-05-03T12:38:36.874Z,2.03
2019-05-03T12:41:06.651Z,1.90
2019-05-03T12:43:37.330Z,2.90
2019-05-03T12:46:07.046Z,1.13
2019-05-03T12:48:36.982Z,0.97
2019-05-03T12:51:07.851Z,1.80
2019-05-03T12:53:39.119Z,5.63
2019-05-03T12:56:12.896Z,2.73
2019-05-03T12:58:58.458Z,2.30
2019-05-03T13:01:49.979Z,2.20
2019-05-03T13:04:29.910Z,1.47
2019-05-03T13:07:05.448Z,1.40
2019-05-03T13:09:35.906Z,1.87
2019-05-03T13:12:08.151Z,3.63
2019-05-03T13:14:38.258Z,2.33
2019-05-03T13:17:11.046Z,2.00
2019-05-03T13:19:40.410Z,2.20
2019-05-03T13:22:19.342Z,1.40
2019-05-03T13:24:49.304Z,3.23
2019-05-03T13:27:20.594Z,1.90
2019-05-03T13:29:58.434Z,1.90
2019-05-03T13:32:29.307Z,4.53
2019-05-03T13:34:59.418Z,1.80
2019-05-03T13:37:29.582Z,3.83
2019-05-03T13:40:07.694Z,1.93
2019-05-03T13:42:37.784Z,2.47
2019-05-03T13:45:08.789Z,3.37
2019-05-03T13:47:39.558Z,2.20
2019-05-03T13:50:09.315Z,1.87
2019-05-03T13:52:39.018Z,3.10
2019-05-03T13:55:09.650Z,1.87
2019-05-03T13:57:39.742Z,6.40
2019-05-03T14:00:11.610Z,6.07
2019-05-03T14:02:41.554Z,3.43
2019-05-03T14:05:12.734Z,3.90
2019-05-03T14:07:44.718Z,3.17
2019-05-03T14:10:15.312Z,2.73
2019-05-03T14:12:45.519Z,4.07
2019-05-03T14:15:16.494Z,2.90
2019-05-03T14:17:46.602Z,5.60
2019-05-03T14:20:35.157Z,3.97
2019-05-03T14:23:05.238Z,5.50
2019-05-03T14:25:35.495Z,4.93
2019-05-03T14:28:05.536Z,3.53
2019-05-03T14:30:35.658Z,3.70
2019-05-03T14:33:05.817Z,4.80
2019-05-03T14:35:35.930Z,3.20
2019-05-03T14:38:06.081Z,5.63
2019-05-03T14:40:37.102Z,9.23
2019-05-03T14:43:11.202Z,5.47
2019-05-03T14:45:41.290Z,5.13
2019-05-03T14:48:12.403Z,4.20
2019-05-03T14:50:45.445Z,7.70
2019-05-03T14:53:22.058Z,5.37
2019-05-03T14:55:57.366Z,3.73
2019-05-03T14:58:45.692Z,4.80
2019-05-03T15:01:36.115Z,3.80
2019-05-03T15:04:06.456Z,5.20
2019-05-03T15:06:36.622Z,6.50
2019-05-03T15:09:08.220Z,4.00
2019-05-03T15:11:38.314Z,3.83
2019-05-03T15:14:08.538Z,3.83
2019-05-03T15:16:39.582Z,9.10
2019-05-03T15:19:10.622Z,4.23
2019-05-03T15:21:41.415Z,7.20
2019-05-03T15:24:11.115Z,3.90
2019-05-03T15:26:40.790Z,5.13
2019-05-03T15:29:11.486Z,12.30
2019-05-03T15:31:41.458Z,3.87
2019-05-03T15:34:15.204Z,5.80
2019-05-03T15:36:45.442Z,5.83
2019-05-03T15:39:15.775Z,5.47
2019-05-03T15:41:45.870Z,5.30
2019-05-03T15:44:29.139Z,6.70
2019-05-03T15:47:09.091Z,3.50
2019-05-03T15:49:35.651Z,5.90
2019-05-03T15:52:05.582Z,5.50
2019-05-03T15:54:35.404Z,6.43
2019-05-03T15:57:07.286Z,6.63
2019-05-03T15:59:37.391Z,5.33
2019-05-03T16:02:08.988Z,6.00
2019-05-03T16:04:39.944Z,4.70
2019-05-03T16:07:10.038Z,4.23
2019-05-03T16:09:40.098Z,4.13
2019-05-03T16:12:16.874Z,5.13
2019-05-03T16:14:46.826Z,5.70
2019-05-03T16:17:16.929Z,8.90
2019-05-03T16:19:47.982Z,9.80
2019-05-03T16:22:17.826Z,7.53
2019-05-03T16:24:50.223Z,6.90
2019-05-03T16:27:24.788Z,6.20
2019-05-03T16:29:55.934Z,9.67
2019-05-03T16:32:27.654Z,5.00
2019-05-03T16:34:57.403Z,8.50
2019-05-03T16:37:27.426Z,7.50
2019-05-03T16:39:57.897Z,4.97
2019-05-03T16:42:30.520Z,5.17
2019-05-03T16:45:00.122Z,5.63
2019-05-03T16:47:32.913Z,4.70
2019-05-03T16:50:06.511Z,7.63
2019-05-03T16:52:38.478Z,10.67
2019-05-03T16:55:09.614Z,6.03
2019-05-03T16:57:40.682Z,9.37
2019-05-03T17:00:11.591Z,6.10
2019-05-03T17:02:47.756Z,6.93
2019-05-03T17:05:37.798Z,5.70
2019-05-03T17:08:27.566Z,5.20
2019-05-03T17:10:59.291Z,6.70
2019-05-03T17:13:30.075Z,4.80
2019-05-03T17:16:00.032Z,5.63
2019-05-03T17:18:31.063Z,3.93
2019-05-03T17:21:00.902Z,12.43
2019-05-03T17:23:30.873Z,9.60
2019-05-03T17:26:00.704Z,5.93
2019-05-03T17:28:31.382Z,7.70
2019-05-03T17:31:01.355Z,6.97
2019-05-03T17:33:32.279Z,6.33
2019-05-03T17:36:08.142Z,15.60
2019-05-03T17:38:38.247Z,5.73
2019-05-03T17:41:16.782Z,8.20
2019-05-03T17:43:48.508Z,20.23
2019-05-03T17:46:18.689Z,11.93
2019-05-03T17:48:48.834Z,9.23
2019-05-03T17:51:35.121Z,6.07
2019-05-03T17:54:06.487Z,10.03
2019-05-03T17:56:55.181Z,11.10
2019-05-03T17:59:26.984Z,7.17
2019-05-03T18:02:15.330Z,13.83
2019-05-03T18:04:54.975Z,8.10
2019-05-03T18:07:34.948Z,15.10
2019-05-03T18:10:10.726Z,15.57
2019-05-03T18:12:45.328Z,10.77
2019-05-03T18:15:16.488Z,9.10
2019-05-03T18:17:47.430Z,6.97
2019-05-03T18:20:17.512Z,7.87
2019-05-03T18:22:54.820Z,9.33
2019-05-03T18:25:24.935Z,13.53
2019-05-03T18:27:55.647Z,10.00
2019-05-03T18:30:25.626Z,13.53
2019-05-03T18:32:56.663Z,9.80
2019-05-03T18:35:26.518Z,12.57
2019-05-03T18:37:59.153Z,7.10
2019-05-03T18:40:30.986Z,9.70
2019-05-03T18:43:04.440Z,13.83
2019-05-03T18:45:38.318Z,15.93
2019-05-03T18:48:08.470Z,6.03
2019-05-03T18:50:38.358Z,7.33
2019-05-03T18:53:09.393Z,8.50
2019-05-03T18:55:39.194Z,7.57
2019-05-03T18:58:09.854Z,9.27
2019-05-03T19:00:45.954Z,10.23
2019-05-03T19:03:17.066Z,15.40
2019-05-03T19:05:48.830Z,22.67
2019-05-03T19:08:26.624Z,12.20
2019-05-03T19:10:58.426Z,10.80
2019-05-03T19:13:30.174Z,17.83
2019-05-03T19:16:01.902Z,34.03
2019-05-03T19:18:38.116Z,40.73
2019-05-03T19:21:08.209Z,14.10
2019-05-03T19:23:38.038Z,8.13
2019-05-03T19:26:07.990Z,8.83
2019-05-03T19:28:39.186Z,7.87
2019-05-03T19:31:09.002Z,6.97
2019-05-03T19:33:38.702Z,12.27
2019-05-03T19:36:09.408Z,19.03
2019-05-03T19:38:39.400Z,15.40
2019-05-03T19:41:25.127Z,10.67
2019-05-03T19:43:55.399Z,11.17
2019-05-03T19:46:25.239Z,12.03
2019-05-03T19:48:55.246Z,7.03
2019-05-03T19:51:28.955Z,5.97
2019-05-03T19:54:07.851Z,7.47
2019-05-03T19:56:37.678Z,7.47
2019-05-03T19:59:09.295Z,9.50
2019-05-03T20:01:55.094Z,6.47
2019-05-03T20:04:32.633Z,9.10
2019-05-03T20:07:06.747Z,9.43
2019-05-03T20:09:36.696Z,13.00
2019-05-03T20:12:06.510Z,6.50
2019-05-03T20:14:36.607Z,7.43
2019-05-03T20:17:07.784Z,6.40
2019-05-03T20:19:37.610Z,8.87
2019-05-03T20:22:08.258Z,6.53
2019-05-03T20:24:38.957Z,20.20
2019-05-03T20:27:11.740Z,23.83
2019-05-03T20:29:43.793Z,20.83
2019-05-03T20:32:13.370Z,16.10
2019-05-03T20:34:52.360Z,13.87
2019-05-03T20:37:22.179Z,11.73
2019-05-03T20:39:54.600Z,11.77
2019-05-03T20:42:25.999Z,18.93
2019-05-03T20:44:57.599Z,7.60
2019-05-03T20:47:34.734Z,8.43
2019-05-03T20:50:24.731Z,9.43
2019-05-03T20:52:55.827Z,13.70
2019-05-03T20:55:25.729Z,7.27
2019-05-03T20:57:55.546Z,9.03
2019-05-03T21:00:27.559Z,10.10
2019-05-03T21:03:04.760Z,14.40
2019-05-03T21:05:37.455Z,11.50
2019-05-03T21:08:07.255Z,11.00
2019-05-03T21:10:46.182Z,9.10
2019-05-03T21:13:19.701Z,7.00
2019-05-03T21:15:55.395Z,6.07
2019-05-03T21:18:35.871Z,9.20
2019-05-03T21:21:08.576Z,7.40
2019-05-03T21:23:44.998Z,7.97
2019-05-03T21:26:16.857Z,7.20
2019-05-03T21:28:47.756Z,8.47
2019-05-03T21:31:24.637Z,9.30
2019-05-03T21:33:55.711Z,10.80
2019-05-03T21:36:25.633Z,9.63
2019-05-03T21:38:55.433Z,14.27
2019-05-03T21:41:25.375Z,13.83
2019-05-03T21:43:55.215Z,8.87
2019-05-03T21:46:34.555Z,6.50
2019-05-03T21:49:11.859Z,12.17
2019-05-03T21:51:41.965Z,8.27
2019-05-03T21:54:12.067Z,8.20
2019-05-03T21:56:44.747Z,10.10
2019-05-03T21:59:14.666Z,7.13
2019-05-03T22:01:46.289Z,10.10
2019-05-03T22:04:18.359Z,10.83
2019-05-03T22:06:48.188Z,11.33
2019-05-03T22:09:19.147Z,12.77
2019-05-03T22:11:52.165Z,9.37
2019-05-03T22:14:39.184Z,7.78
2019-05-03T22:17:29.181Z,7.65
2019-05-03T22:20:00.643Z,9.30
2019-05-03T22:22:36.361Z,13.35
2019-05-03T22:25:08.996Z,13.88
2019-05-03T22:27:40.462Z,8.45
2019-05-03T22:30:11.067Z,13.43
2019-05-03T22:32:40.895Z,10.75
2019-05-03T22:35:11.272Z,14.20
2019-05-03T22:37:41.380Z,14.35
2019-05-03T22:40:11.284Z,10.43
2019-05-03T22:42:41.235Z,10.67
2019-05-03T22:45:15.206Z,9.60
2019-05-03T22:47:45.882Z,9.93
2019-05-03T22:50:15.595Z,15.25
2019-05-03T22:52:45.628Z,10.10
2019-05-03T22:55:16.689Z,16.10
2019-05-03T22:57:46.813Z,9.47
2019-05-03T23:00:17.719Z,10.63
2019-05-03T23:02:48.683Z,14.90
2019-05-03T23:05:19.791Z,10.75
2019-05-03T23:07:49.892Z,12.70
2019-05-03T23:10:19.759Z,9.90
2019-05-03T23:12:49.429Z,12.27
2019-05-03T23:15:20.039Z,11.68
2019-05-03T23:17:49.727Z,14.10
2019-05-03T23:20:25.469Z,11.20
2019-05-03T23:23:06.634Z,17.10
2019-05-03T23:25:36.732Z,13.97
2019-05-03T23:28:07.587Z,10.03
2019-05-03T23:30:37.547Z,9.95
2019-05-03T23:33:14.687Z,12.10
2019-05-03T23:35:45.743Z,12.27
2019-05-03T23:38:15.559Z,10.63
2019-05-03T23:40:45.255Z,9.83
2019-05-03T23:43:20.839Z,11.13
2019-05-03T23:45:50.795Z,9.37
2019-05-03T23:48:20.905Z,9.13
2019-05-03T23:50:52.779Z,13.47
2019-05-03T23:53:22.867Z,9.87
2019-05-03T23:55:58.816Z,10.33
2019-05-03T23:58:28.915Z,9.63
